Estrela Do Mar — CUMD9 — position and weather

sailwx.info

Track history (hours):
 
Tides and Currents Weather Stations Pressure Air Temp Water Temp Dewpoint Dewpoint Depression Visibility Wind Speed Wind Dir Waves Ship Positions

Estrela Do Mar

Last reported at 2018-Jul-20 09:48 UTC. Time now 2018-Jul-21 09:33 UTC.
Position N 37°57' W 008°52'.

Length 26 m; draft 3.5 m.

Type: Fishing. MMSI: 263407280.

Date/timePositionNaut miles runAvg speedWind from/ knotsBaromVisibWave heightAir tempDewpointWater temp
2018-Jul-20 09:48N 37°57' W 008°52'0 0.5
2018-Jul-20 09:30N 37°57' W 008°52'0 0.0
2018-Jul-20 09:01N 37°57' W 008°52'1 2.8
2018-Jul-20 08:31N 37°56' W 008°52'510.8
2018-Jul-20 08:01N 37°50' W 008°52'510.6
2018-Jul-20 07:30N 37°45' W 008°51'6 3.5
2018-Jul-20 05:55N 37°40' W 008°50'1 0.5
2018-Jul-20 04:51N 37°40' W 008°50'2 6.4
2018-Jul-20 04:30N 37°42' W 008°51'1 0.9
2018-Jul-20 03:38N 37°42' W 008°50'0 0.4
2018-Jul-20 03:28N 37°42' W 008°50'0 0.2
2018-Jul-20 02:59N 37°42' W 008°50'0 0.7
2018-Jul-20 02:30N 37°42' W 008°50'5 9.8
2018-Jul-20 02:00N 37°47' W 008°51'510.0
2018-Jul-20 01:31N 37°52' W 008°51'510.0
2018-Jul-20 01:00N 37°57' W 008°52'0 0.5
2018-Jul-20 00:30N 37°57' W 008°52'0 0.0
2018-Jul-20 00:00N 37°57' W 008°52'0 0.0
2018-Jul-19 23:31N 37°57' W 008°52'0 0.2
2018-Jul-19 23:00N 37°57' W 008°52'0 0.0
2018-Jul-19 08:00N 37°57' W 008°52'0 0.2
2018-Jul-19 07:30N 37°57' W 008°52'0 0.0
2018-Jul-19 07:00N 37°57' W 008°52'0 0.0
2018-Jul-19 06:30N 37°57' W 008°52'0 0.0
2018-Jul-19 06:00N 37°57' W 008°52'4 7.3
2018-Jul-19 05:30N 37°54' W 008°52'510.7
2018-Jul-19 05:00N 37°48' W 008°52'7 4.2
2018-Jul-19 03:22N 37°41' W 008°50'0 0.2
2018-Jul-19 02:39N 37°42' W 008°50'3 6.0
2018-Jul-19 02:12N 37°39' W 008°49'2 7.6
2018-Jul-19 01:53N 37°41' W 008°49'3 7.9
2018-Jul-19 01:30N 37°44' W 008°50'5 9.7
2018-Jul-19 01:00N 37°49' W 008°51'510.0
2018-Jul-19 00:30N 37°54' W 008°52'3 6.2
2018-Jul-18 23:59N 37°57' W 008°52'0 0.0
2018-Jul-18 23:30N 37°57' W 008°52'0 0.0
2018-Jul-18 23:00N 37°57' W 008°52'0 0.0
2018-Jul-18 22:30N 37°57' W 008°52'0 0.0
2018-Jul-18 22:00N 37°57' W 008°52'0 0.0
2018-Jul-18 10:19N 37°57' W 008°52'0 0.3
2018-Jul-18 10:00N 37°57' W 008°52'0 0.0
2018-Jul-18 09:31N 37°57' W 008°52'0 0.0
2018-Jul-18 09:00N 37°57' W 008°52'4 8.9
2018-Jul-18 08:30N 37°53' W 008°52'510.7
2018-Jul-18 08:01N 37°47' W 008°51'810.3
2018-Jul-18 07:12N 37°39' W 008°50'0 0.7
2018-Jul-18 07:00N 37°39' W 008°50'0 0.5
2018-Jul-18 06:27N 37°40' W 008°50'0 0.2
2018-Jul-18 05:52N 37°40' W 008°50'2 4.2
2018-Jul-18 05:18N 37°42' W 008°50'0 0.3
2018-Jul-18 04:44N 37°42' W 008°50'1 5.7
2018-Jul-18 04:30N 37°43' W 008°50'5 9.3
2018-Jul-18 04:01N 37°48' W 008°51'5 9.4
2018-Jul-18 03:31N 37°52' W 008°50'2 3.2
2018-Jul-18 03:00N 37°54' W 008°50'0 0.0
2018-Jul-18 02:30N 37°54' W 008°50'2 3.3
2018-Jul-18 02:01N 37°55' W 008°51'2 4.3
2018-Jul-18 01:31N 37°57' W 008°52'0 0.0
2018-Jul-18 01:01N 37°57' W 008°52'0 0.0
2018-Jul-18 00:31N 37°57' W 008°52'0 0.0
2018-Jul-18 00:00N 37°57' W 008°52'0 0.0
2018-Jul-17 23:31N 37°57' W 008°52'0 0.0
2018-Jul-17 23:01N 37°57' W 008°52'0 0.0
2018-Jul-17 22:30N 37°57' W 008°52'0 0.0
2018-Jul-17 22:00N 37°57' W 008°52'0 0.0
2018-Jul-17 09:37N 37°57' W 008°52'0 0.7
2018-Jul-17 09:30N 37°57' W 008°52'0 0.0
2018-Jul-17 09:00N 37°57' W 008°52'0 0.0
2018-Jul-17 08:31N 37°57' W 008°52'2 3.4
2018-Jul-17 08:00N 37°58' W 008°54'3 6.2
2018-Jul-17 07:30N 37°55' W 008°53'4 7.8
2018-Jul-17 07:01N 37°51' W 008°51'3 6.1
2018-Jul-17 06:31N 37°48' W 008°51'0 0.0
2018-Jul-17 06:00N 37°48' W 008°51'0 0.1
2018-Jul-17 05:30N 37°48' W 008°51'1 2.4
2018-Jul-17 05:00N 37°47' W 008°50'4 7.4
2018-Jul-17 04:29N 37°43' W 008°51'0 0.4
2018-Jul-17 04:00N 37°43' W 008°50'1 2.6
2018-Jul-17 03:30N 37°44' W 008°52'1 2.2
2018-Jul-17 03:00N 37°44' W 008°50'2 3.9
2018-Jul-17 02:30N 37°42' W 008°50'510.0
2018-Jul-17 02:00N 37°47' W 008°51'4 8.3
2018-Jul-17 01:30N 37°51' W 008°51'510.8
2018-Jul-17 01:01N 37°56' W 008°54'510.3
2018-Jul-17 00:30N 38°01' W 008°53'9 8.6
2018-Jul-16 23:31N 38°09' W 008°48'3 6.7
2018-Jul-16 23:00N 38°06' W 008°49'2 4.9
2018-Jul-16 22:30N 38°04' W 008°51'3 6.8
2018-Jul-16 22:00N 38°01' W 008°53'5 9.1
2018-Jul-16 21:31N 37°56' W 008°53'1 0.1
2018-Jul-16 08:59N 37°57' W 008°52'0 0.2
2018-Jul-16 08:30N 37°57' W 008°52'0 0.0
2018-Jul-16 08:00N 37°57' W 008°52'2 4.0
2018-Jul-16 07:30N 37°58' W 008°55'0 0.2
2018-Jul-16 07:00N 37°58' W 008°55'0 0.3
2018-Jul-16 06:30N 37°58' W 008°55'2 3.8
2018-Jul-16 06:00N 37°57' W 008°52'0 0.0
2018-Jul-16 05:30N 37°57' W 008°52'3 6.7
2018-Jul-16 05:00N 37°54' W 008°52'611.1
2018-Jul-16 04:30N 37°48' W 008°51'5 8.7
2018-Jul-16 03:55N 37°43' W 008°50'0 0.3
2018-Jul-16 03:28N 37°43' W 008°50'0 0.2
2018-Jul-16 02:58N 37°43' W 008°50'1 2.7
2018-Jul-16 02:30N 37°44' W 008°50'4 8.4
2018-Jul-16 02:00N 37°49' W 008°50'5 9.2
2018-Jul-16 01:30N 37°53' W 008°51'4 9.0
2018-Jul-16 01:00N 37°57' W 008°54'4 8.8
2018-Jul-16 00:30N 38°01' W 008°53'5 9.3
2018-Jul-16 00:00N 38°05' W 008°50'1 3.0
2018-Jul-15 23:30N 38°04' W 008°51'0 0.3
2018-Jul-15 23:00N 38°04' W 008°51'0 0.3
2018-Jul-15 22:30N 38°03' W 008°51'4 7.3
2018-Jul-15 22:00N 38°00' W 008°53'4 7.2
2018-Jul-15 21:30N 37°57' W 008°53'0 1.0
2018-Jul-15 21:00N 37°57' W 008°52'  
2018-Jul-13 10:50N 37°57' W 008°52'0 0.2
2018-Jul-13 10:31N 37°57' W 008°52'0 0.0
2018-Jul-13 10:00N 37°57' W 008°52'0 0.0
2018-Jul-13 09:30N 37°57' W 008°52'0 0.0
2018-Jul-13 09:00N 37°57' W 008°52'0 0.0
2018-Jul-13 08:30N 37°57' W 008°52'2 5.0
2018-Jul-13 08:01N 37°55' W 008°52'611.0
2018-Jul-13 07:31N 37°49' W 008°51'4 7.5
2018-Jul-13 07:01N 37°46' W 008°50'0 0.1
2018-Jul-13 06:30N 37°46' W 008°50'0 0.2
2018-Jul-13 06:00N 37°46' W 008°50'0 0.1
2018-Jul-13 05:30N 37°46' W 008°50'3 4.6
2018-Jul-13 04:55N 37°43' W 008°50'1 1.6
2018-Jul-13 04:01N 37°41' W 008°50'0 9.9
2018-Jul-13 03:58N 37°42' W 008°50'4 8.5
2018-Jul-13 03:30N 37°46' W 008°50'3 5.8
2018-Jul-13 03:00N 37°49' W 008°51'5 9.2
2018-Jul-13 02:30N 37°53' W 008°50'4 8.6
2018-Jul-13 02:00N 37°57' W 008°52'0 0.0
2018-Jul-13 01:30N 37°57' W 008°52'0 0.0
2018-Jul-13 01:01N 37°57' W 008°52'0 0.0
2018-Jul-13 00:30N 37°57' W 008°52'0 0.0
2018-Jul-13 00:00N 37°57' W 008°52'0 0.3
2018-Jul-12 23:31N 37°57' W 008°52'0 0.0
2018-Jul-12 11:33N 37°57' W 008°52'0 0.0
2018-Jul-12 11:30N 37°57' W 008°52'0 0.0
2018-Jul-12 11:00N 37°57' W 008°52'0 0.0
2018-Jul-12 10:30N 37°57' W 008°52'0 0.0
2018-Jul-12 10:00N 37°57' W 008°52'2 3.4
2018-Jul-12 09:30N 37°58' W 008°54'0 0.9
2018-Jul-12 09:00N 37°58' W 008°55'0 0.4
2018-Jul-12 08:30N 37°58' W 008°55'1 1.2
2018-Jul-12 08:00N 37°58' W 008°55'2 4.6
2018-Jul-12 07:30N 37°57' W 008°52'0 0.0
2018-Jul-12 07:00N 37°57' W 008°52'0 0.0
2018-Jul-12 06:30N 37°57' W 008°52'0 0.0
2018-Jul-12 06:00N 37°57' W 008°52'3 6.6
2018-Jul-12 05:30N 37°54' W 008°52'5 9.1
2018-Jul-12 05:00N 37°49' W 008°52'0 0.2
2018-Jul-12 04:30N 37°49' W 008°52'0 0.5
2018-Jul-12 04:00N 37°50' W 008°52'0 0.2
2018-Jul-12 03:30N 37°50' W 008°52'0 0.7
2018-Jul-12 03:00N 37°50' W 008°52'4 7.1
2018-Jul-12 02:30N 37°53' W 008°50'4 8.6
2018-Jul-12 02:00N 37°57' W 008°52'0 0.0
2018-Jul-12 01:30N 37°57' W 008°52'0 0.0
2018-Jul-12 01:00N 37°57' W 008°52'0 0.1
2018-Jul-12 00:30N 37°57' W 008°52'3 5.3
2018-Jul-12 00:00N 37°59' W 008°55'5 9.6
2018-Jul-11 23:30N 38°03' W 008°51'2 3.3
2018-Jul-11 23:00N 38°04' W 008°51'1 1.1
2018-Jul-11 22:30N 38°05' W 008°50'5 9.4
2018-Jul-11 22:00N 38°00' W 008°53'4 7.5
2018-Jul-11 21:30N 37°56' W 008°53'1 0.1
2018-Jul-11 10:54N 37°57' W 008°52'0 0.0
2018-Jul-11 10:31N 37°57' W 008°52'0 0.0
2018-Jul-11 08:38N 37°57' W 008°52'0 0.0
2018-Jul-11 08:31N 37°57' W 008°52'0 0.2
2018-Jul-11 08:00N 37°57' W 008°52'0 0.0
2018-Jul-11 07:30N 37°57' W 008°52'0 0.0
2018-Jul-11 07:00N 37°57' W 008°52'0 0.0
2018-Jul-11 06:28N 37°57' W 008°52'0 0.0
2018-Jul-11 06:01N 37°57' W 008°52'0 0.2
2018-Jul-11 05:31N 37°57' W 008°52'510.7
2018-Jul-11 05:01N 37°52' W 008°51'1 1.2
2018-Jul-11 04:31N 37°51' W 008°51'0 0.2
2018-Jul-11 04:00N 37°51' W 008°51'0 0.1
2018-Jul-11 03:30N 37°51' W 008°51'2 3.4
2018-Jul-11 03:01N 37°53' W 008°50'4 9.0
2018-Jul-11 02:31N 37°57' W 008°52'0 0.1
2018-Jul-11 02:00N 37°57' W 008°52'0 0.5
2018-Jul-11 01:31N 37°57' W 008°52'3 5.6
2018-Jul-11 01:01N 37°60' W 008°53'510.3
2018-Jul-11 00:30N 38°04' W 008°50'1 2.8
2018-Jul-11 00:00N 38°06' W 008°50'0 0.3
2018-Jul-10 23:30N 38°06' W 008°50'0 0.2
2018-Jul-10 23:01N 38°06' W 008°50'2 4.1
2018-Jul-10 22:31N 38°04' W 008°51'4 7.4
2018-Jul-10 22:00N 38°00' W 008°53'4 8.3
2018-Jul-10 21:31N 37°56' W 008°53'1 1.9
2018-Jul-10 21:00N 37°57' W 008°52'  
Track history (hours):
 
Tides and Currents Weather Stations Pressure Air Temp Water Temp Dewpoint Dewpoint Depression Visibility Wind Speed Wind Dir Waves Ship Positions

Estrela Do Mar

Last reported at 2018-Jul-20 09:48 UTC. Time now 2018-Jul-21 09:33 UTC.
Position N 37°57' W 008°52'.

Length 26 m; draft 3.5 m.

Type: Fishing. MMSI: 263407280.

Date/timePositionNaut miles runAvg speedWind from/ knotsBaromVisibWave heightAir tempDewpointWater temp
2018-Jul-20 09:48N 37°57' W 008°52'0 0.5
2018-Jul-20 09:30N 37°57' W 008°52'0 0.0
2018-Jul-20 09:01N 37°57' W 008°52'1 2.8
2018-Jul-20 08:31N 37°56' W 008°52'510.8
2018-Jul-20 08:01N 37°50' W 008°52'510.6
2018-Jul-20 07:30N 37°45' W 008°51'6 3.5
2018-Jul-20 05:55N 37°40' W 008°50'1 0.5
2018-Jul-20 04:51N 37°40' W 008°50'2 6.4
2018-Jul-20 04:30N 37°42' W 008°51'1 0.9
2018-Jul-20 03:38N 37°42' W 008°50'0 0.4
2018-Jul-20 03:28N 37°42' W 008°50'0 0.2
2018-Jul-20 02:59N 37°42' W 008°50'0 0.7
2018-Jul-20 02:30N 37°42' W 008°50'5 9.8
2018-Jul-20 02:00N 37°47' W 008°51'510.0
2018-Jul-20 01:31N 37°52' W 008°51'510.0
2018-Jul-20 01:00N 37°57' W 008°52'0 0.5
2018-Jul-20 00:30N 37°57' W 008°52'0 0.0
2018-Jul-20 00:00N 37°57' W 008°52'0 0.0
2018-Jul-19 23:31N 37°57' W 008°52'0 0.2
2018-Jul-19 23:00N 37°57' W 008°52'0 0.0
2018-Jul-19 08:00N 37°57' W 008°52'0 0.2
2018-Jul-19 07:30N 37°57' W 008°52'0 0.0
2018-Jul-19 07:00N 37°57' W 008°52'0 0.0
2018-Jul-19 06:30N 37°57' W 008°52'0 0.0
2018-Jul-19 06:00N 37°57' W 008°52'4 7.3
2018-Jul-19 05:30N 37°54' W 008°52'510.7
2018-Jul-19 05:00N 37°48' W 008°52'7 4.2
2018-Jul-19 03:22N 37°41' W 008°50'0 0.2
2018-Jul-19 02:39N 37°42' W 008°50'3 6.0
2018-Jul-19 02:12N 37°39' W 008°49'2 7.6
2018-Jul-19 01:53N 37°41' W 008°49'3 7.9
2018-Jul-19 01:30N 37°44' W 008°50'5 9.7
2018-Jul-19 01:00N 37°49' W 008°51'510.0
2018-Jul-19 00:30N 37°54' W 008°52'3 6.2
2018-Jul-18 23:59N 37°57' W 008°52'0 0.0
2018-Jul-18 23:30N 37°57' W 008°52'0 0.0
2018-Jul-18 23:00N 37°57' W 008°52'0 0.0
2018-Jul-18 22:30N 37°57' W 008°52'0 0.0
2018-Jul-18 22:00N 37°57' W 008°52'0 0.0
2018-Jul-18 10:19N 37°57' W 008°52'0 0.3
2018-Jul-18 10:00N 37°57' W 008°52'0 0.0
2018-Jul-18 09:31N 37°57' W 008°52'0 0.0
2018-Jul-18 09:00N 37°57' W 008°52'4 8.9
2018-Jul-18 08:30N 37°53' W 008°52'510.7
2018-Jul-18 08:01N 37°47' W 008°51'810.3
2018-Jul-18 07:12N 37°39' W 008°50'0 0.7
2018-Jul-18 07:00N 37°39' W 008°50'0 0.5
2018-Jul-18 06:27N 37°40' W 008°50'0 0.2
2018-Jul-18 05:52N 37°40' W 008°50'2 4.2
2018-Jul-18 05:18N 37°42' W 008°50'0 0.3
2018-Jul-18 04:44N 37°42' W 008°50'1 5.7
2018-Jul-18 04:30N 37°43' W 008°50'5 9.3
2018-Jul-18 04:01N 37°48' W 008°51'5 9.4
2018-Jul-18 03:31N 37°52' W 008°50'2 3.2
2018-Jul-18 03:00N 37°54' W 008°50'0 0.0
2018-Jul-18 02:30N 37°54' W 008°50'2 3.3
2018-Jul-18 02:01N 37°55' W 008°51'2 4.3
2018-Jul-18 01:31N 37°57' W 008°52'0 0.0
2018-Jul-18 01:01N 37°57' W 008°52'0 0.0
2018-Jul-18 00:31N 37°57' W 008°52'0 0.0
2018-Jul-18 00:00N 37°57' W 008°52'0 0.0
2018-Jul-17 23:31N 37°57' W 008°52'0 0.0
2018-Jul-17 23:01N 37°57' W 008°52'0 0.0
2018-Jul-17 22:30N 37°57' W 008°52'0 0.0
2018-Jul-17 22:00N 37°57' W 008°52'0 0.0
2018-Jul-17 09:37N 37°57' W 008°52'0 0.7
2018-Jul-17 09:30N 37°57' W 008°52'0 0.0
2018-Jul-17 09:00N 37°57' W 008°52'0 0.0
2018-Jul-17 08:31N 37°57' W 008°52'2 3.4
2018-Jul-17 08:00N 37°58' W 008°54'3 6.2
2018-Jul-17 07:30N 37°55' W 008°53'4 7.8
2018-Jul-17 07:01N 37°51' W 008°51'3 6.1
2018-Jul-17 06:31N 37°48' W 008°51'0 0.0
2018-Jul-17 06:00N 37°48' W 008°51'0 0.1
2018-Jul-17 05:30N 37°48' W 008°51'1 2.4
2018-Jul-17 05:00N 37°47' W 008°50'4 7.4
2018-Jul-17 04:29N 37°43' W 008°51'0 0.4
2018-Jul-17 04:00N 37°43' W 008°50'1 2.6
2018-Jul-17 03:30N 37°44' W 008°52'1 2.2
2018-Jul-17 03:00N 37°44' W 008°50'2 3.9
2018-Jul-17 02:30N 37°42' W 008°50'510.0
2018-Jul-17 02:00N 37°47' W 008°51'4 8.3
2018-Jul-17 01:30N 37°51' W 008°51'510.8
2018-Jul-17 01:01N 37°56' W 008°54'510.3
2018-Jul-17 00:30N 38°01' W 008°53'9 8.6
2018-Jul-16 23:31N 38°09' W 008°48'3 6.7
2018-Jul-16 23:00N 38°06' W 008°49'2 4.9
2018-Jul-16 22:30N 38°04' W 008°51'3 6.8
2018-Jul-16 22:00N 38°01' W 008°53'5 9.1
2018-Jul-16 21:31N 37°56' W 008°53'1 0.1
2018-Jul-16 08:59N 37°57' W 008°52'0 0.2
2018-Jul-16 08:30N 37°57' W 008°52'0 0.0
2018-Jul-16 08:00N 37°57' W 008°52'2 4.0
2018-Jul-16 07:30N 37°58' W 008°55'0 0.2
2018-Jul-16 07:00N 37°58' W 008°55'0 0.3
2018-Jul-16 06:30N 37°58' W 008°55'2 3.8
2018-Jul-16 06:00N 37°57' W 008°52'0 0.0
2018-Jul-16 05:30N 37°57' W 008°52'3 6.7
2018-Jul-16 05:00N 37°54' W 008°52'611.1
2018-Jul-16 04:30N 37°48' W 008°51'5 8.7
2018-Jul-16 03:55N 37°43' W 008°50'0 0.3
2018-Jul-16 03:28N 37°43' W 008°50'0 0.2
2018-Jul-16 02:58N 37°43' W 008°50'1 2.7
2018-Jul-16 02:30N 37°44' W 008°50'4 8.4
2018-Jul-16 02:00N 37°49' W 008°50'5 9.2
2018-Jul-16 01:30N 37°53' W 008°51'4 9.0
2018-Jul-16 01:00N 37°57' W 008°54'4 8.8
2018-Jul-16 00:30N 38°01' W 008°53'5 9.3
2018-Jul-16 00:00N 38°05' W 008°50'1 3.0
2018-Jul-15 23:30N 38°04' W 008°51'0 0.3
2018-Jul-15 23:00N 38°04' W 008°51'0 0.3
2018-Jul-15 22:30N 38°03' W 008°51'4 7.3
2018-Jul-15 22:00N 38°00' W 008°53'4 7.2
2018-Jul-15 21:30N 37°57' W 008°53'0 1.0
2018-Jul-15 21:00N 37°57' W 008°52'  
2018-Jul-13 10:50N 37°57' W 008°52'0 0.2
2018-Jul-13 10:31N 37°57' W 008°52'0 0.0
2018-Jul-13 10:00N 37°57' W 008°52'0 0.0
2018-Jul-13 09:30N 37°57' W 008°52'0 0.0
2018-Jul-13 09:00N 37°57' W 008°52'0 0.0
2018-Jul-13 08:30N 37°57' W 008°52'2 5.0
2018-Jul-13 08:01N 37°55' W 008°52'611.0
2018-Jul-13 07:31N 37°49' W 008°51'4 7.5
2018-Jul-13 07:01N 37°46' W 008°50'0 0.1
2018-Jul-13 06:30N 37°46' W 008°50'0 0.2
2018-Jul-13 06:00N 37°46' W 008°50'0 0.1
2018-Jul-13 05:30N 37°46' W 008°50'3 4.6
2018-Jul-13 04:55N 37°43' W 008°50'1 1.6
2018-Jul-13 04:01N 37°41' W 008°50'0 9.9
2018-Jul-13 03:58N 37°42' W 008°50'4 8.5
2018-Jul-13 03:30N 37°46' W 008°50'3 5.8
2018-Jul-13 03:00N 37°49' W 008°51'5 9.2
2018-Jul-13 02:30N 37°53' W 008°50'4 8.6
2018-Jul-13 02:00N 37°57' W 008°52'0 0.0
2018-Jul-13 01:30N 37°57' W 008°52'0 0.0
2018-Jul-13 01:01N 37°57' W 008°52'0 0.0
2018-Jul-13 00:30N 37°57' W 008°52'0 0.0
2018-Jul-13 00:00N 37°57' W 008°52'0 0.3
2018-Jul-12 23:31N 37°57' W 008°52'0 0.0
2018-Jul-12 11:33N 37°57' W 008°52'0 0.0
2018-Jul-12 11:30N 37°57' W 008°52'0 0.0
2018-Jul-12 11:00N 37°57' W 008°52'0 0.0
2018-Jul-12 10:30N 37°57' W 008°52'0 0.0
2018-Jul-12 10:00N 37°57' W 008°52'2 3.4
2018-Jul-12 09:30N 37°58' W 008°54'0 0.9
2018-Jul-12 09:00N 37°58' W 008°55'0 0.4
2018-Jul-12 08:30N 37°58' W 008°55'1 1.2
2018-Jul-12 08:00N 37°58' W 008°55'2 4.6
2018-Jul-12 07:30N 37°57' W 008°52'0 0.0
2018-Jul-12 07:00N 37°57' W 008°52'0 0.0
2018-Jul-12 06:30N 37°57' W 008°52'0 0.0
2018-Jul-12 06:00N 37°57' W 008°52'3 6.6
2018-Jul-12 05:30N 37°54' W 008°52'5 9.1
2018-Jul-12 05:00N 37°49' W 008°52'0 0.2
2018-Jul-12 04:30N 37°49' W 008°52'0 0.5
2018-Jul-12 04:00N 37°50' W 008°52'0 0.2
2018-Jul-12 03:30N 37°50' W 008°52'0 0.7
2018-Jul-12 03:00N 37°50' W 008°52'4 7.1
2018-Jul-12 02:30N 37°53' W 008°50'4 8.6
2018-Jul-12 02:00N 37°57' W 008°52'0 0.0
2018-Jul-12 01:30N 37°57' W 008°52'0 0.0
2018-Jul-12 01:00N 37°57' W 008°52'0 0.1
2018-Jul-12 00:30N 37°57' W 008°52'3 5.3
2018-Jul-12 00:00N 37°59' W 008°55'5 9.6
2018-Jul-11 23:30N 38°03' W 008°51'2 3.3
2018-Jul-11 23:00N 38°04' W 008°51'1 1.1
2018-Jul-11 22:30N 38°05' W 008°50'5 9.4
2018-Jul-11 22:00N 38°00' W 008°53'4 7.5
2018-Jul-11 21:30N 37°56' W 008°53'1 0.1
2018-Jul-11 10:54N 37°57' W 008°52'0 0.0
2018-Jul-11 10:31N 37°57' W 008°52'0 0.0
2018-Jul-11 08:38N 37°57' W 008°52'0 0.0
2018-Jul-11 08:31N 37°57' W 008°52'0 0.2
2018-Jul-11 08:00N 37°57' W 008°52'0 0.0
2018-Jul-11 07:30N 37°57' W 008°52'0 0.0
2018-Jul-11 07:00N 37°57' W 008°52'0 0.0
2018-Jul-11 06:28N 37°57' W 008°52'0 0.0
2018-Jul-11 06:01N 37°57' W 008°52'0 0.2
2018-Jul-11 05:31N 37°57' W 008°52'510.7
2018-Jul-11 05:01N 37°52' W 008°51'1 1.2
2018-Jul-11 04:31N 37°51' W 008°51'0 0.2
2018-Jul-11 04:00N 37°51' W 008°51'0 0.1
2018-Jul-11 03:30N 37°51' W 008°51'2 3.4
2018-Jul-11 03:01N 37°53' W 008°50'4 9.0
2018-Jul-11 02:31N 37°57' W 008°52'0 0.1
2018-Jul-11 02:00N 37°57' W 008°52'0 0.5
2018-Jul-11 01:31N 37°57' W 008°52'3 5.6
2018-Jul-11 01:01N 37°60' W 008°53'510.3
2018-Jul-11 00:30N 38°04' W 008°50'1 2.8
2018-Jul-11 00:00N 38°06' W 008°50'0 0.3
2018-Jul-10 23:30N 38°06' W 008°50'0 0.2
2018-Jul-10 23:01N 38°06' W 008°50'2 4.1
2018-Jul-10 22:31N 38°04' W 008°51'4 7.4
2018-Jul-10 22:00N 38°00' W 008°53'4 8.3
2018-Jul-10 21:31N 37°56' W 008°53'1 1.9
2018-Jul-10 21:00N 37°57' W 008°52'  

Dump ship's entire track history